Weather at Gorakhpur Airport

Public forecast

Using degrees Celsius for public forecast. Weather courtesy of forecast.io.

Current aviation weather report (METAR) for Gorakhpur Airport

Retrieved 2020/09/24 19:30 UTC (38 minutes ago):

VEGK 241930Z 08003KT 4000 BR-RA BKN005 FEW030CB OVC080 25/25 Q1002 NOSIG

Aviation forecast (TAF) for Gorakhpur Airport

Forecast is more than 6 hours old.

Retrieved 2020/09/24 12:30 UTC (8 hours ago):

TAF VEGK 240930Z 2412/2424 12010KT 4000 RABR BKN008 SCT018 FEW025CB OVC090 TEMPO 2416/2418 2000 TSRA BKN006 SCT018 FEW030CB OVC090